createdAt,value
2023-02-19T00:02:09.300Z,21.35
2023-02-19T00:04:43.055Z,31.00
2023-02-19T00:07:19.823Z,19.63
2023-02-19T00:09:53.098Z,25.70
2023-02-19T00:12:28.878Z,19.92
2023-02-19T00:15:04.064Z,16.42
2023-02-19T00:17:38.099Z,22.25
2023-02-19T00:20:05.118Z,21.58
2023-02-19T00:22:38.104Z,16.08
2023-02-19T00:25:05.013Z,23.65
2023-02-19T00:27:39.165Z,19.13
2023-02-19T00:30:06.364Z,20.65
2023-02-19T00:32:40.088Z,20.40
2023-02-19T00:35:17.093Z,17.08
2023-02-19T00:37:50.125Z,17.85
2023-02-19T00:40:24.151Z,21.48
2023-02-19T00:42:50.962Z,19.50
2023-02-19T00:45:24.128Z,18.17
2023-02-19T00:47:50.966Z,21.23
2023-02-19T00:50:24.127Z,23.23
2023-02-19T00:52:50.949Z,25.75
2023-02-19T00:55:24.132Z,24.58
2023-02-19T00:58:11.159Z,21.95
2023-02-19T01:00:37.854Z,24.40
2023-02-19T01:03:20.186Z,22.98
2023-02-19T01:05:46.921Z,23.00
2023-02-19T01:08:26.177Z,18.40
2023-02-19T01:10:53.343Z,19.85
2023-02-19T01:13:35.158Z,17.95
2023-02-19T01:16:14.220Z,19.67
2023-02-19T01:18:41.714Z,17.33
2023-02-19T01:21:29.171Z,16.38
2023-02-19T01:23:57.746Z,17.60
2023-02-19T01:26:34.209Z,20.50
2023-02-19T01:29:08.248Z,24.98
2023-02-19T01:31:35.468Z,19.92
2023-02-19T01:34:13.259Z,16.05
2023-02-19T01:36:46.216Z,15.90
2023-02-19T01:39:19.227Z,14.95
2023-02-19T01:41:46.061Z,15.13
2023-02-19T01:44:23.221Z,19.90
2023-02-19T01:46:57.412Z,16.05
2023-02-19T01:49:57.255Z,15.55
2023-02-19T01:52:32.683Z,10.30
2023-02-19T01:55:08.225Z,16.15
2023-02-19T01:57:41.996Z,17.40
2023-02-19T02:00:18.276Z,21.95
2023-02-19T02:02:57.261Z,18.33
2023-02-19T02:05:43.231Z,14.30
2023-02-19T02:08:36.336Z,11.65
2023-02-19T02:11:04.474Z,16.08
2023-02-19T02:13:41.293Z,19.85
2023-02-19T02:16:32.322Z,17.23
2023-02-19T02:19:19.302Z,20.95
2023-02-19T02:21:54.751Z,15.75
2023-02-19T02:24:34.277Z,13.45
2023-02-19T02:27:38.296Z,16.02
2023-02-19T02:30:14.346Z,16.20
2023-02-19T02:33:29.306Z,19.75
2023-02-19T02:36:07.158Z,19.60
2023-02-19T02:38:45.366Z,17.10
2023-02-19T02:41:20.293Z,14.93
2023-02-19T02:43:47.051Z,16.30
2023-02-19T02:46:28.306Z,18.42
2023-02-19T02:49:03.416Z,15.20
2023-02-19T02:51:57.315Z,19.38
2023-02-19T02:54:50.741Z,17.83
2023-02-19T02:57:26.366Z,20.85
2023-02-19T02:59:59.336Z,15.55
2023-02-19T03:02:37.470Z,19.15
2023-02-19T03:05:31.814Z,12.77
2023-02-19T03:08:20.641Z,16.50
2023-02-19T03:11:22.775Z,18.48
2023-02-19T03:14:19.406Z,17.52
2023-02-19T03:17:08.708Z,22.65
2023-02-19T03:19:48.511Z,20.02
2023-02-19T03:22:22.901Z,17.77
2023-02-19T03:25:30.437Z,19.67
2023-02-19T03:28:08.180Z,17.85
2023-02-19T03:30:46.411Z,20.33
2023-02-19T03:33:20.309Z,16.92
2023-02-19T03:35:59.402Z,15.65
2023-02-19T03:38:49.486Z,14.23
2023-02-19T03:41:50.381Z,14.05
2023-02-19T03:44:35.952Z,14.30
2023-02-19T03:47:28.377Z,17.10
2023-02-19T03:50:07.057Z,18.70
2023-02-19T03:53:06.413Z,19.17
2023-02-19T03:56:09.478Z,16.83
2023-02-19T03:58:49.052Z,22.75
2023-02-19T04:01:32.467Z,21.33
2023-02-19T04:04:18.485Z,13.15
2023-02-19T04:06:55.498Z,19.77
2023-02-19T04:09:25.232Z,21.77
2023-02-19T04:12:01.466Z,15.43
2023-02-19T04:14:40.848Z,17.23
2023-02-19T04:17:22.462Z,18.50
2023-02-19T04:19:51.588Z,15.83
2023-02-19T04:22:26.501Z,20.58
2023-02-19T04:25:01.494Z,16.55
2023-02-19T04:27:28.349Z,22.13
2023-02-19T04:29:55.105Z,14.80
2023-02-19T04:32:30.518Z,17.38
2023-02-19T04:34:57.258Z,22.60
2023-02-19T04:37:27.824Z,16.05
2023-02-19T04:40:01.737Z,23.58
2023-02-19T04:42:32.860Z,18.30
2023-02-19T04:44:59.669Z,19.35
2023-02-19T04:47:39.514Z,16.65
2023-02-19T04:50:06.534Z,17.90
2023-02-19T04:52:33.399Z,17.58
2023-02-19T04:55:06.554Z,21.17
2023-02-19T04:57:33.460Z,18.10
2023-02-19T05:00:00.202Z,19.00
2023-02-19T05:02:33.806Z,15.80
2023-02-19T05:05:01.846Z,17.48
2023-02-19T05:07:29.313Z,19.00
2023-02-19T05:10:02.560Z,16.02
2023-02-19T05:12:33.329Z,16.67
2023-02-19T05:15:02.372Z,17.95
2023-02-19T05:17:35.543Z,21.13
2023-02-19T05:20:08.574Z,18.02
2023-02-19T05:22:43.378Z,19.10
2023-02-19T05:25:16.540Z,14.25
2023-02-19T05:27:49.608Z,16.20
2023-02-19T05:30:16.497Z,15.35
2023-02-19T05:32:43.904Z,14.20
2023-02-19T05:35:17.848Z,16.92
2023-02-19T05:37:44.581Z,16.83
2023-02-19T05:40:11.420Z,17.45
2023-02-19T05:42:44.600Z,15.15
2023-02-19T05:45:11.324Z,13.50
2023-02-19T05:47:44.617Z,17.77
2023-02-19T05:50:17.637Z,16.35
2023-02-19T05:52:44.589Z,18.50
2023-02-19T05:55:25.637Z,21.58
2023-02-19T05:57:52.414Z,14.48
2023-02-19T06:00:20.583Z,17.40
2023-02-19T06:02:54.725Z,15.60
2023-02-19T06:05:21.720Z,16.60
2023-02-19T06:07:50.508Z,15.80
2023-02-19T06:10:24.625Z,16.13
2023-02-19T06:12:54.414Z,16.77
2023-02-19T06:15:28.671Z,19.42
2023-02-19T06:17:55.431Z,15.30
2023-02-19T06:20:22.173Z,13.77
2023-02-19T06:22:58.634Z,13.77
2023-02-19T06:25:32.349Z,16.88
2023-02-19T06:28:05.666Z,12.90
2023-02-19T06:30:32.743Z,16.92
2023-02-19T06:32:59.519Z,13.55
2023-02-19T06:35:42.669Z,18.40
2023-02-19T06:38:09.420Z,20.70
2023-02-19T06:40:36.198Z,13.35
2023-02-19T06:43:09.695Z,15.68
2023-02-19T06:45:43.678Z,15.77
2023-02-19T06:48:16.742Z,14.05
2023-02-19T06:50:50.260Z,13.30
2023-02-19T06:53:23.820Z,15.75
2023-02-19T06:56:05.451Z,25.05
2023-02-19T06:58:39.781Z,17.13
2023-02-19T07:01:06.662Z,15.55
2023-02-19T07:03:33.870Z,13.02
2023-02-19T07:06:07.916Z,20.27
2023-02-19T07:08:34.865Z,19.50
2023-02-19T07:11:01.630Z,22.05
2023-02-19T07:13:34.755Z,16.88
2023-02-19T07:16:04.468Z,18.48
2023-02-19T07:18:32.105Z,18.45
2023-02-19T07:21:17.768Z,13.90
2023-02-19T07:23:51.745Z,16.20
2023-02-19T07:26:20.308Z,14.35
2023-02-19T07:28:48.818Z,17.67
2023-02-19T07:31:23.797Z,19.80
2023-02-19T07:33:51.226Z,18.48
2023-02-19T07:36:31.810Z,16.23
2023-02-19T07:39:09.145Z,19.92
2023-02-19T07:41:36.826Z,14.70
2023-02-19T07:44:03.860Z,22.00
2023-02-19T07:46:37.944Z,24.50
2023-02-19T07:49:11.848Z,17.55
2023-02-19T07:51:39.929Z,22.95
2023-02-19T07:54:07.710Z,15.70
2023-02-19T07:56:41.238Z,15.73
2023-02-19T07:59:07.997Z,14.52
2023-02-19T08:02:00.816Z,16.42
2023-02-19T08:04:33.866Z,17.52
2023-02-19T08:07:09.832Z,16.40
2023-02-19T08:09:36.613Z,13.75
2023-02-19T08:12:29.076Z,11.88
2023-02-19T08:14:56.026Z,12.85
2023-02-19T08:17:36.883Z,10.25
2023-02-19T08:20:09.869Z,12.35
2023-02-19T08:22:36.712Z,13.95
2023-02-19T08:25:10.035Z,17.05
2023-02-19T08:27:36.924Z,17.10
2023-02-19T08:30:04.558Z,17.15
2023-02-19T08:32:37.889Z,15.80
2023-02-19T08:35:05.015Z,22.00
2023-02-19T08:37:31.728Z,14.65
2023-02-19T08:40:05.129Z,25.23
2023-02-19T08:42:32.157Z,21.67
2023-02-19T08:44:58.871Z,20.60
2023-02-19T08:47:32.044Z,17.25
2023-02-19T08:49:58.773Z,20.02
2023-02-19T08:52:25.520Z,18.55
2023-02-19T08:54:58.959Z,24.25
2023-02-19T08:57:33.052Z,18.63
2023-02-19T08:59:59.902Z,20.00
2023-02-19T09:02:26.663Z,17.85
2023-02-19T09:04:59.927Z,16.02
2023-02-19T09:07:27.346Z,20.40
2023-02-19T09:10:00.903Z,27.67
2023-02-19T09:12:33.908Z,16.13
2023-02-19T09:15:00.974Z,21.90
2023-02-19T09:17:37.902Z,18.35
2023-02-19T09:20:04.901Z,22.95
2023-02-19T09:22:37.964Z,21.25
2023-02-19T09:25:05.151Z,15.82
2023-02-19T09:27:41.000Z,21.00
2023-02-19T09:30:08.185Z,18.40
2023-02-19T09:32:41.999Z,15.00
2023-02-19T09:35:14.984Z,20.58
2023-02-19T09:37:47.983Z,17.83
2023-02-19T09:40:15.930Z,21.75
2023-02-19T09:42:50.291Z,12.18
2023-02-19T09:45:30.975Z,19.25
2023-02-19T09:48:04.976Z,16.15
2023-02-19T09:50:45.584Z,15.15
2023-02-19T09:53:25.966Z,14.55
2023-02-19T09:55:53.298Z,14.32
2023-02-19T09:58:37.052Z,14.18
2023-02-19T10:01:07.958Z,13.85
2023-02-19T10:03:48.272Z,17.85
2023-02-19T10:06:33.084Z,17.27
2023-02-19T10:09:23.964Z,12.35
2023-02-19T10:12:00.073Z,18.20
2023-02-19T10:14:41.994Z,15.25
2023-02-19T10:17:26.016Z,20.17
2023-02-19T10:20:00.042Z,13.98
2023-02-19T10:22:34.071Z,20.67
2023-02-19T10:25:00.912Z,16.30
2023-02-19T10:27:40.099Z,18.48
2023-02-19T10:30:14.433Z,18.42
2023-02-19T10:33:07.100Z,14.27
2023-02-19T10:38:04.050Z,14.25
2023-02-19T10:40:37.072Z,14.10
2023-02-19T10:43:05.523Z,14.20
2023-02-19T10:45:47.086Z,12.48
2023-02-19T10:48:49.107Z,9.63
2023-02-19T10:51:22.911Z,16.70
2023-02-19T10:53:59.059Z,17.02
2023-02-19T10:56:29.921Z,9.30
2023-02-19T10:59:34.112Z,13.38
2023-02-19T11:02:15.439Z,11.00
2023-02-19T11:05:11.109Z,10.13
2023-02-19T11:07:47.187Z,7.90
2023-02-19T11:10:46.075Z,7.90
2023-02-19T11:13:39.145Z,6.97
2023-02-19T11:16:12.153Z,9.90
2023-02-19T11:18:40.821Z,6.72
2023-02-19T11:21:29.153Z,9.32
2023-02-19T11:24:03.148Z,6.90
2023-02-19T11:26:42.195Z,7.90
2023-02-19T11:29:28.490Z,8.73
2023-02-19T11:32:03.235Z,5.72
2023-02-19T11:34:30.345Z,4.65
2023-02-19T11:37:20.157Z,3.85
2023-02-19T11:39:51.276Z,4.85
2023-02-19T11:43:02.165Z,4.72
2023-02-19T11:45:50.153Z,6.30
2023-02-19T11:48:41.191Z,3.97
2023-02-19T11:51:11.444Z,4.78
2023-02-19T11:53:55.160Z,4.90
2023-02-19T11:56:40.178Z,4.20
2023-02-19T11:59:32.183Z,4.60
2023-02-19T12:02:20.603Z,4.35
2023-02-19T12:05:33.222Z,3.97
2023-02-19T12:08:29.422Z,3.92
2023-02-19T12:11:47.244Z,5.53
2023-02-19T12:14:48.212Z,5.35
2023-02-19T12:17:27.229Z,5.05
2023-02-19T12:20:28.764Z,4.18
2023-02-19T12:26:11.573Z,4.25
2023-02-19T12:28:47.322Z,3.65
2023-02-19T12:32:00.326Z,3.45
2023-02-19T12:34:49.565Z,3.90
2023-02-19T12:38:01.233Z,4.18
2023-02-19T12:41:17.271Z,3.72
2023-02-19T12:44:07.227Z,4.25
2023-02-19T12:46:39.675Z,4.93
2023-02-19T12:49:36.290Z,8.82
2023-02-19T12:52:33.362Z,7.47
2023-02-19T12:55:18.340Z,5.53
2023-02-19T12:57:45.740Z,4.65
2023-02-19T13:00:40.266Z,5.05
2023-02-19T13:03:34.269Z,7.15
2023-02-19T13:06:14.760Z,6.72
2023-02-19T13:09:05.859Z,7.68
2023-02-19T13:12:21.333Z,7.22
2023-02-19T13:15:20.944Z,7.13
2023-02-19T13:18:01.128Z,8.80
2023-02-19T13:20:38.902Z,8.23
2023-02-19T13:23:31.347Z,7.22
2023-02-19T13:26:28.356Z,8.15
2023-02-19T13:29:22.683Z,8.45
2023-02-19T13:32:32.328Z,7.30
2023-02-19T13:35:20.394Z,8.38
2023-02-19T13:37:48.745Z,7.82
2023-02-19T13:40:31.423Z,7.40
2023-02-19T13:43:27.595Z,7.85
2023-02-19T13:46:10.388Z,6.45
2023-02-19T13:48:39.597Z,6.50
2023-02-19T13:51:31.390Z,6.75
2023-02-19T13:54:02.110Z,5.80
2023-02-19T13:56:41.398Z,5.30
2023-02-19T13:59:10.977Z,6.03
2023-02-19T14:01:56.426Z,4.57
2023-02-19T14:04:32.140Z,4.60
2023-02-19T14:07:09.566Z,5.28
2023-02-19T14:09:39.960Z,5.65
2023-02-19T14:12:19.715Z,4.30
2023-02-19T14:15:00.424Z,4.53
2023-02-19T14:17:39.915Z,3.95
2023-02-19T14:20:16.433Z,3.38
2023-02-19T14:22:56.375Z,3.88
2023-02-19T14:25:25.945Z,4.47
2023-02-19T14:28:23.452Z,3.78
2023-02-19T14:30:53.146Z,5.95
2023-02-19T14:33:31.574Z,2.88
2023-02-19T14:36:10.368Z,4.20
2023-02-19T14:38:53.472Z,4.00
2023-02-19T14:41:23.371Z,6.90
2023-02-19T14:44:00.443Z,3.40
2023-02-19T14:46:27.211Z,2.33
2023-02-19T14:49:00.602Z,3.03
2023-02-19T14:51:33.571Z,3.42
2023-02-19T14:54:15.970Z,4.38
2023-02-19T14:56:46.705Z,2.10
2023-02-19T14:59:35.499Z,2.50
2023-02-19T15:02:32.740Z,3.15
2023-02-19T15:04:59.611Z,2.55
2023-02-19T15:07:40.464Z,2.33
2023-02-19T15:10:09.297Z,2.30
2023-02-19T15:12:54.462Z,3.03
2023-02-19T15:15:29.733Z,3.08
2023-02-19T15:18:04.477Z,3.15
2023-02-19T15:20:36.939Z,4.65
2023-02-19T15:23:13.504Z,5.22
2023-02-19T15:25:49.562Z,5.20
2023-02-19T15:28:49.561Z,3.75
2023-02-19T15:31:16.477Z,5.60
2023-02-19T15:37:42.674Z,3.90
2023-02-19T15:40:14.876Z,3.53
2023-02-19T15:42:52.541Z,3.72
2023-02-19T15:45:35.616Z,3.30
2023-02-19T15:48:24.522Z,5.57
2023-02-19T15:50:57.802Z,4.25
2023-02-19T15:53:36.688Z,4.20
2023-02-19T15:56:35.774Z,4.72
2023-02-19T15:59:33.687Z,5.45
2023-02-19T16:02:01.604Z,6.50
2023-02-19T16:04:28.571Z,6.18
2023-02-19T16:07:07.560Z,6.45
2023-02-19T16:09:46.839Z,6.43
2023-02-19T16:12:24.686Z,6.35
2023-02-19T16:14:58.613Z,5.55
2023-02-19T16:17:28.248Z,5.68
2023-02-19T16:20:09.603Z,6.25
2023-02-19T16:22:42.991Z,5.28
2023-02-19T16:25:35.884Z,6.68
2023-02-19T16:28:10.973Z,7.85
2023-02-19T16:30:44.911Z,4.60
2023-02-19T16:33:42.083Z,3.38
2023-02-19T16:36:27.641Z,2.28
2023-02-19T16:39:06.890Z,2.70
2023-02-19T16:41:45.596Z,8.13
2023-02-19T16:44:27.621Z,3.75
2023-02-19T16:47:02.348Z,3.45
2023-02-19T16:49:35.632Z,3.90
2023-02-19T16:52:10.899Z,3.67
2023-02-19T16:54:44.791Z,3.50
2023-02-19T16:57:11.717Z,2.70
2023-02-19T16:59:38.554Z,4.03
2023-02-19T17:02:22.132Z,2.55
2023-02-19T17:04:51.718Z,2.83
2023-02-19T17:07:18.838Z,3.03
2023-02-19T17:09:52.688Z,3.00
2023-02-19T17:12:26.784Z,2.80
2023-02-19T17:14:53.598Z,2.40
2023-02-19T17:17:21.022Z,4.28
2023-02-19T17:19:54.963Z,2.50
2023-02-19T17:22:26.272Z,2.30
2023-02-19T17:25:01.808Z,2.67
2023-02-19T17:27:33.834Z,2.70
2023-02-19T17:30:00.869Z,5.18
2023-02-19T17:32:35.052Z,2.20
2023-02-19T17:35:01.898Z,3.67
2023-02-19T17:37:31.017Z,3.53
2023-02-19T17:40:04.704Z,3.33
2023-02-19T17:42:31.525Z,3.53
2023-02-19T17:45:04.877Z,3.58
2023-02-19T17:47:31.624Z,3.30
2023-02-19T17:49:58.378Z,3.67
2023-02-19T17:52:31.729Z,3.85
2023-02-19T17:54:58.658Z,3.75
2023-02-19T17:57:32.851Z,3.60
2023-02-19T18:00:00.442Z,3.05
2023-02-19T18:02:27.378Z,3.55
2023-02-19T18:05:00.741Z,3.75
2023-02-19T18:07:27.647Z,5.63
2023-02-19T18:09:55.591Z,4.13
2023-02-19T18:12:28.782Z,5.63
2023-02-19T18:15:08.789Z,4.88
2023-02-19T18:17:42.907Z,6.85
2023-02-19T18:20:14.146Z,4.80
2023-02-19T18:22:42.427Z,6.13
2023-02-19T18:25:16.814Z,4.18
2023-02-19T18:27:45.383Z,3.50
2023-02-19T18:30:13.110Z,5.93
2023-02-19T18:32:49.816Z,3.25
2023-02-19T18:35:24.992Z,2.60
2023-02-19T18:37:53.251Z,4.65
2023-02-19T18:40:21.850Z,2.28
2023-02-19T18:43:02.001Z,2.88
2023-02-19T18:45:29.666Z,2.45
2023-02-19T18:47:56.560Z,3.30
2023-02-19T18:50:29.966Z,3.28
2023-02-19T18:52:56.924Z,2.80
2023-02-19T18:55:23.778Z,2.72
2023-02-19T18:58:01.164Z,2.88
2023-02-19T19:00:28.017Z,3.03
2023-02-19T19:03:16.935Z,3.78
2023-02-19T19:05:50.646Z,4.07
2023-02-19T19:08:23.892Z,2.70
2023-02-19T19:10:51.677Z,3.20
2023-02-19T19:13:21.022Z,2.95
2023-02-19T19:15:58.985Z,3.40
2023-02-19T19:18:25.880Z,3.88
2023-02-19T19:21:02.915Z,5.10
2023-02-19T19:23:29.717Z,4.13
2023-02-19T19:25:56.719Z,4.65
2023-02-19T19:28:29.924Z,5.15
2023-02-19T19:31:03.973Z,3.75
2023-02-19T19:33:31.023Z,3.92
2023-02-19T19:35:57.813Z,5.35
2023-02-19T19:38:34.198Z,5.47
2023-02-19T19:41:10.172Z,6.13
2023-02-19T19:43:37.793Z,5.50
2023-02-19T19:46:10.971Z,4.57
2023-02-19T19:48:40.933Z,4.50
2023-02-19T19:51:14.932Z,4.40
2023-02-19T19:53:41.671Z,5.28
2023-02-19T19:56:15.219Z,4.47
2023-02-19T19:58:42.087Z,4.43
2023-02-19T20:01:08.919Z,5.47
2023-02-19T20:03:41.928Z,4.28
2023-02-19T20:06:08.906Z,4.53
2023-02-19T20:08:38.618Z,4.53
2023-02-19T20:11:12.213Z,4.53
2023-02-19T20:13:39.207Z,6.38
2023-02-19T20:16:13.959Z,4.30
2023-02-19T20:18:41.688Z,6.03
2023-02-19T20:21:10.064Z,5.38
2023-02-19T20:23:47.003Z,6.28
2023-02-19T20:26:19.994Z,7.03
2023-02-19T20:28:46.902Z,7.05
2023-02-19T20:31:14.224Z,8.43
2023-02-19T20:33:47.962Z,8.00
2023-02-19T20:36:21.000Z,8.40
2023-02-19T20:38:49.870Z,9.48
2023-02-19T20:41:23.158Z,7.05
2023-02-19T20:43:50.191Z,7.40
2023-02-19T20:46:18.445Z,7.10
2023-02-19T20:48:52.277Z,7.72
2023-02-19T20:51:19.104Z,9.38
2023-02-19T20:53:59.320Z,9.65
2023-02-19T20:56:26.194Z,8.38
2023-02-19T20:58:53.104Z,7.80
2023-02-19T21:01:33.296Z,8.85
2023-02-19T21:04:06.256Z,8.90
2023-02-19T21:06:40.036Z,6.32
2023-02-19T21:09:07.258Z,6.80
2023-02-19T21:11:34.255Z,5.70
2023-02-19T21:14:08.037Z,5.60
2023-02-19T21:16:35.161Z,4.68
2023-02-19T21:19:09.338Z,4.15
2023-02-19T21:21:36.159Z,7.35
2023-02-19T21:24:03.184Z,4.63
2023-02-19T21:26:42.198Z,5.72
2023-02-19T21:29:13.333Z,4.97
2023-02-19T21:31:52.176Z,4.35
2023-02-19T21:34:28.075Z,6.28
2023-02-19T21:36:56.035Z,7.28
2023-02-19T21:39:25.132Z,7.35
2023-02-19T21:42:07.229Z,7.10
2023-02-19T21:44:34.032Z,8.10
2023-02-19T21:47:05.973Z,7.70
2023-02-19T21:49:39.165Z,6.38
2023-02-19T21:52:06.063Z,6.25
2023-02-19T21:54:32.823Z,8.57
2023-02-19T21:57:09.525Z,10.43
2023-02-19T21:59:36.368Z,8.55
2023-02-19T22:02:07.002Z,8.82
2023-02-19T22:04:40.397Z,8.65
2023-02-19T22:07:07.319Z,8.73
2023-02-19T22:09:38.813Z,8.95
2023-02-19T22:12:12.153Z,9.65
2023-02-19T22:14:45.102Z,8.23
2023-02-19T22:17:12.497Z,11.95
2023-02-19T22:19:46.151Z,11.70
2023-02-19T22:22:15.127Z,12.18
2023-02-19T22:24:56.414Z,10.73
2023-02-19T22:27:24.806Z,9.65
2023-02-19T22:29:51.614Z,10.48
2023-02-19T22:32:27.244Z,8.63
2023-02-19T22:34:54.172Z,8.32
2023-02-19T22:37:21.393Z,9.88
2023-02-19T22:39:55.163Z,9.90
2023-02-19T22:42:24.154Z,9.68
2023-02-19T22:44:57.152Z,8.68
2023-02-19T22:47:23.940Z,9.68
2023-02-19T22:49:51.289Z,9.43
2023-02-19T22:52:24.172Z,11.70
2023-02-19T22:54:59.221Z,10.57
2023-02-19T22:57:29.365Z,9.60
2023-02-19T23:00:03.233Z,11.23
2023-02-19T23:02:34.389Z,10.20
2023-02-19T23:05:01.321Z,9.63
2023-02-19T23:07:42.204Z,9.52
2023-02-19T23:10:11.149Z,11.35
2023-02-19T23:12:49.189Z,11.52
2023-02-19T23:15:23.214Z,11.30
2023-02-19T23:17:50.051Z,10.45
2023-02-19T23:20:16.989Z,12.02
2023-02-19T23:22:50.511Z,12.48
2023-02-19T23:25:17.413Z,13.63
2023-02-19T23:27:49.790Z,14.20
2023-02-19T23:30:24.313Z,15.63
2023-02-19T23:32:51.134Z,12.57
2023-02-19T23:35:17.991Z,17.35
2023-02-19T23:37:56.263Z,16.63
2023-02-19T23:40:29.574Z,17.73
2023-02-19T23:42:56.812Z,19.33
2023-02-19T23:45:23.887Z,15.85
2023-02-19T23:47:57.287Z,14.05
2023-02-19T23:50:24.323Z,16.95
2023-02-19T23:52:58.259Z,17.10
2023-02-19T23:55:33.293Z,17.27
2023-02-19T23:58:00.193Z,17.73
